This is the latest recevied weather packets stored in our database for station/object JE3XST-13. If no packets are shown the sender has not sent any weather packets the latest 10 day(s).
| Time | Temp. | Humidity | Pressure | Rain* | Wind** | Luminosity | Snow |
|---|---|---|---|---|---|---|---|
| 1787408082 | 28.89° C | 75% | 1014 hPa | 0 mm | - | - | - |
| 1787406282 | 29.44° C | 76% | 1013.8 hPa | 0 mm | - | - | - |
| 1787404480 | 30° C | 72% | 1013.6 hPa | 0 mm | - | - | - |
| 1787402679 | 30° C | 69% | 1013.6 hPa | 0 mm | - | - | - |
| 1787400878 | 30° C | 68% | 1013.5 hPa | 0 mm | - | - | - |
| 1787399077 | 30° C | 66% | 1013.3 hPa | 0 mm | - | - | - |
| 1787397278 | 29.44° C | 71% | 1013.1 hPa | 0 mm | - | - | - |
| 1787395475 | 32.22° C | 68% | 1012.8 hPa | 0 mm | - | - | - |
| 1787393673 | 32.78° C | 66% | 1011.7 hPa | 0 mm | - | - | - |
| 1787392630 | 33.33° C | 65% | 1011.5 hPa | 0 mm | - | - | - |
| 1787390830 | 33.89° C | 63% | 1011.2 hPa | 0 mm | - | - | - |
| 1787389028 | 33.89° C | 62% | 1011 hPa | 0 mm | - | - | - |
| 1787387226 | 34.44° C | 61% | 1010.7 hPa | 0 mm | - | - | - |
| 1787385426 | 36.67° C | 53% | 1010.5 hPa | 0 mm | - | - | - |
| 1787383625 | 37.22° C | 48% | 1010.4 hPa | 0 mm | - | - | - |
| 1787381897 | 36.67° C | 48% | 1010.2 hPa | 0 mm | - | - | - |
| 1787381730 | 36.67° C | 49% | 1010.3 hPa | 0 mm | - | - | - |
| 1787379928 | 36.11° C | 51% | 1010.3 hPa | 0 mm | - | - | - |
| 1787378126 | 36.11° C | 51% | 1010.6 hPa | 0 mm | - | - | - |
| 1787376327 | 36.11° C | 52% | 1010.6 hPa | 0 mm | - | - | - |
| 1787374525 | 36.11° C | 52% | 1010.9 hPa | 0 mm | - | - | - |
| 1787372725 | 35.56° C | 52% | 1011.2 hPa | 0 mm | - | - | - |
| 1787370923 | 35.56° C | 53% | 1011.2 hPa | 0 mm | - | - | - |
| 1787369123 | 34.44° C | 55% | 1011.5 hPa | 0 mm | - | - | - |
| 1787367322 | 33.89° C | 57% | 1011.9 hPa | 0 mm | - | - | - |
* Rain latest hour (hover to see other rain measurements)
** Current wind speed in m/s (hover to see current wind gust speed)